createdAt,value
2022-11-13T00:00:56.607Z,8.00
2022-11-13T00:03:23.395Z,8.00
2022-11-13T00:05:59.366Z,8.00
2022-11-13T00:08:26.186Z,8.00
2022-11-13T00:10:59.340Z,8.00
2022-11-13T00:13:30.147Z,7.90
2022-11-13T00:15:58.510Z,7.90
2022-11-13T00:18:25.393Z,7.90
2022-11-13T00:20:52.265Z,7.80
2022-11-13T00:23:18.834Z,7.80
2022-11-13T00:25:45.392Z,7.70
2022-11-13T00:28:11.929Z,7.60
2022-11-13T00:30:38.494Z,7.60
2022-11-13T00:33:05.049Z,7.50
2022-11-13T00:35:32.765Z,7.50
2022-11-13T00:37:59.386Z,7.40
2022-11-13T00:40:25.927Z,7.40
2022-11-13T00:42:52.435Z,7.30
2022-11-13T00:45:18.954Z,7.40
2022-11-13T00:47:45.455Z,7.40
2022-11-13T00:50:12.031Z,7.30
2022-11-13T00:52:38.603Z,7.20
2022-11-13T00:55:05.607Z,7.20
2022-11-13T00:57:32.161Z,7.20
2022-11-13T00:59:58.662Z,7.30
2022-11-13T01:02:25.218Z,7.20
2022-11-13T01:04:51.751Z,7.10
2022-11-13T01:07:18.421Z,7.10
2022-11-13T01:09:45.031Z,7.20
2022-11-13T01:12:12.708Z,7.20
2022-11-13T01:14:39.284Z,7.20
2022-11-13T01:17:05.837Z,7.10
2022-11-13T01:19:32.406Z,7.00
2022-11-13T01:21:58.947Z,6.90
2022-11-13T01:24:25.543Z,6.90
2022-11-13T01:26:52.073Z,7.00
2022-11-13T01:29:18.594Z,7.00
2022-11-13T01:31:45.133Z,7.00
2022-11-13T01:34:11.739Z,7.00
2022-11-13T01:36:38.243Z,7.00
2022-11-13T01:39:04.846Z,7.00
2022-11-13T01:41:33.464Z,7.10
2022-11-13T01:44:01.141Z,7.10
2022-11-13T01:46:31.933Z,7.10
2022-11-13T01:49:10.695Z,7.00
2022-11-13T01:51:52.531Z,7.00
2022-11-13T01:54:42.995Z,6.90
2022-11-13T01:57:10.488Z,6.90
2022-11-13T01:59:43.871Z,6.80
2022-11-13T02:02:10.537Z,6.80
2022-11-13T02:04:37.170Z,6.70
2022-11-13T02:07:12.793Z,6.80
2022-11-13T02:09:42.998Z,6.70
2022-11-13T02:12:15.346Z,6.70
2022-11-13T02:14:45.697Z,6.80
2022-11-13T02:17:19.608Z,6.80
2022-11-13T02:19:50.182Z,6.70
2022-11-13T02:22:20.179Z,6.70
2022-11-13T02:24:49.845Z,6.70
2022-11-13T02:27:30.191Z,6.80
2022-11-13T02:29:56.739Z,6.80
2022-11-13T02:32:23.275Z,6.80
2022-11-13T02:34:49.808Z,6.80
2022-11-13T02:37:17.227Z,6.80
2022-11-13T02:39:43.747Z,6.90
2022-11-13T02:42:10.308Z,6.90
2022-11-13T02:44:36.843Z,6.90
2022-11-13T02:47:03.449Z,6.90
2022-11-13T02:49:29.976Z,6.80
2022-11-13T02:51:56.518Z,6.80
2022-11-13T02:54:23.074Z,6.80
2022-11-13T02:56:49.627Z,6.80
2022-11-13T02:59:16.285Z,6.70
2022-11-13T03:01:42.929Z,6.70
2022-11-13T03:04:09.715Z,6.70
2022-11-13T03:06:36.239Z,6.70
2022-11-13T03:09:02.962Z,6.70
2022-11-13T03:11:29.487Z,6.80
2022-11-13T03:13:56.498Z,6.80
2022-11-13T03:16:23.072Z,6.80
2022-11-13T03:18:49.645Z,6.80
2022-11-13T03:21:16.412Z,6.90
2022-11-13T03:23:46.541Z,6.90
2022-11-13T03:26:15.653Z,6.90
2022-11-13T03:28:42.257Z,7.00
2022-11-13T03:31:09.094Z,7.00
2022-11-13T03:33:35.634Z,7.00
2022-11-13T03:36:02.199Z,7.00
2022-11-13T03:38:28.927Z,7.10
2022-11-13T03:40:55.731Z,7.10
2022-11-13T03:43:22.671Z,7.10
2022-11-13T03:45:49.502Z,7.10
2022-11-13T03:48:16.535Z,7.10
2022-11-13T03:50:45.741Z,7.20
2022-11-13T03:53:12.640Z,7.10
2022-11-13T03:55:39.612Z,7.10
2022-11-13T03:58:06.236Z,7.10
2022-11-13T04:00:33.414Z,7.10
2022-11-13T04:02:59.949Z,7.00
2022-11-13T04:05:27.291Z,7.00
2022-11-13T04:07:53.967Z,7.00
2022-11-13T04:10:20.597Z,6.90
2022-11-13T04:12:47.304Z,6.90
2022-11-13T04:15:13.834Z,6.90
2022-11-13T04:17:40.408Z,6.80
2022-11-13T04:20:07.895Z,6.80
2022-11-13T04:22:34.440Z,6.80
2022-11-13T04:25:01.006Z,6.70
2022-11-13T04:27:27.561Z,6.70
2022-11-13T04:29:54.128Z,6.60
2022-11-13T04:32:20.696Z,6.60
2022-11-13T04:34:47.256Z,6.60
2022-11-13T04:37:14.136Z,6.60
2022-11-13T04:39:40.684Z,6.60
2022-11-13T04:42:27.530Z,6.60
2022-11-13T04:44:54.074Z,6.60
2022-11-13T04:47:20.889Z,6.50
2022-11-13T04:49:47.402Z,6.40
2022-11-13T04:52:14.270Z,6.40
2022-11-13T04:54:40.961Z,6.40
2022-11-13T04:57:07.502Z,6.40
2022-11-13T04:59:34.004Z,6.40
2022-11-13T05:02:00.782Z,6.40
2022-11-13T05:04:27.350Z,6.40
2022-11-13T05:06:53.961Z,6.40
2022-11-13T05:09:20.526Z,6.40
2022-11-13T05:11:47.135Z,6.40
2022-11-13T05:14:13.868Z,6.40
2022-11-13T05:16:40.651Z,6.40
2022-11-13T05:19:07.961Z,6.40
2022-11-13T05:21:39.155Z,6.40
2022-11-13T05:24:06.170Z,6.40
2022-11-13T05:26:32.925Z,6.40
2022-11-13T05:29:00.581Z,6.40
2022-11-13T05:31:27.711Z,6.40
2022-11-13T05:33:54.803Z,6.50
2022-11-13T05:36:22.366Z,6.50
2022-11-13T05:38:48.986Z,6.50
2022-11-13T05:41:20.756Z,6.50
2022-11-13T05:43:47.980Z,6.50
2022-11-13T05:46:14.487Z,6.50
2022-11-13T05:48:41.944Z,6.50
2022-11-13T05:51:17.313Z,6.50
2022-11-13T05:53:44.084Z,6.50
2022-11-13T05:56:14.894Z,6.50
2022-11-13T05:58:43.011Z,6.50
2022-11-13T06:01:12.674Z,6.50
2022-11-13T06:03:39.847Z,6.50
2022-11-13T06:06:08.847Z,6.50
2022-11-13T06:08:36.007Z,6.50
2022-11-13T06:11:05.556Z,6.50
2022-11-13T06:13:32.544Z,6.50
2022-11-13T06:16:07.247Z,6.50
2022-11-13T06:18:34.754Z,6.50
2022-11-13T06:21:03.434Z,6.50
2022-11-13T06:23:31.991Z,6.50
2022-11-13T06:26:04.143Z,6.50
2022-11-13T06:28:31.147Z,6.50
2022-11-13T06:31:03.927Z,6.50
2022-11-13T06:33:31.025Z,6.50
2022-11-13T06:35:58.009Z,6.50
2022-11-13T06:38:24.623Z,6.50
2022-11-13T06:40:51.158Z,6.50
2022-11-13T06:43:17.690Z,6.50
2022-11-13T06:45:44.246Z,6.50
2022-11-13T06:48:10.981Z,6.50
2022-11-13T06:50:37.604Z,6.50
2022-11-13T06:53:04.159Z,6.50
2022-11-13T06:55:30.704Z,6.50
2022-11-13T06:57:57.340Z,6.50
2022-11-13T07:00:23.902Z,6.40
2022-11-13T07:02:50.508Z,6.50
2022-11-13T07:05:17.503Z,6.50
2022-11-13T07:07:44.070Z,6.50
2022-11-13T07:10:10.819Z,6.50
2022-11-13T07:12:37.454Z,6.50
2022-11-13T07:15:04.340Z,6.60
2022-11-13T07:17:30.911Z,6.60
2022-11-13T07:19:57.450Z,6.60
2022-11-13T07:22:25.345Z,6.60
2022-11-13T07:24:53.566Z,6.60
2022-11-13T07:27:20.079Z,6.60
2022-11-13T07:29:46.586Z,6.60
2022-11-13T07:32:13.166Z,6.70
2022-11-13T07:34:39.696Z,6.70
2022-11-13T07:37:09.157Z,6.70
2022-11-13T07:39:35.709Z,6.60
2022-11-13T07:42:02.445Z,6.70
2022-11-13T07:44:52.977Z,6.70
2022-11-13T07:47:15.609Z,6.80
2022-11-13T07:49:42.146Z,6.80
2022-11-13T07:52:08.763Z,6.80
2022-11-13T07:54:35.457Z,6.90
2022-11-13T07:57:02.008Z,6.90
2022-11-13T07:59:28.544Z,6.90
2022-11-13T08:01:55.087Z,7.00
2022-11-13T08:04:21.887Z,7.00
2022-11-13T08:06:48.443Z,7.10
2022-11-13T08:09:15.072Z,7.20
2022-11-13T08:11:41.761Z,7.10
2022-11-13T08:14:08.798Z,7.20
2022-11-13T08:16:35.365Z,7.20
2022-11-13T08:19:02.939Z,7.20
2022-11-13T08:21:29.603Z,7.30
2022-11-13T08:23:56.106Z,7.30
2022-11-13T08:26:23.103Z,7.30
2022-11-13T08:28:49.715Z,7.40
2022-11-13T08:31:17.048Z,7.40
2022-11-13T08:33:43.731Z,7.40
2022-11-13T08:36:11.403Z,7.50
2022-11-13T08:38:38.194Z,7.50
2022-11-13T08:41:09.315Z,7.60
2022-11-13T08:43:36.410Z,7.70
2022-11-13T08:46:03.154Z,7.60
2022-11-13T08:48:30.304Z,7.70
2022-11-13T08:50:57.609Z,7.70
2022-11-13T08:53:25.228Z,7.70
2022-11-13T08:55:52.083Z,7.80
2022-11-13T08:58:18.718Z,7.80
2022-11-13T09:00:45.284Z,7.90
2022-11-13T09:03:12.417Z,7.90
2022-11-13T09:05:39.209Z,8.00
2022-11-13T09:08:06.372Z,8.00
2022-11-13T09:10:33.273Z,8.10
2022-11-13T09:13:01.959Z,8.10
2022-11-13T09:15:30.406Z,8.20
2022-11-13T09:18:01.786Z,8.20
2022-11-13T09:20:32.879Z,8.20
2022-11-13T09:23:04.824Z,8.20
2022-11-13T09:25:37.291Z,8.30
2022-11-13T09:28:06.022Z,8.30
2022-11-13T09:30:32.939Z,8.30
2022-11-13T09:33:00.789Z,8.30
2022-11-13T09:35:34.524Z,8.30
2022-11-13T09:38:11.547Z,8.40
2022-11-13T09:40:52.140Z,8.40
2022-11-13T09:44:00.360Z,8.30
2022-11-13T09:46:49.315Z,8.40
2022-11-13T09:49:27.157Z,8.40
2022-11-13T09:51:57.538Z,8.40
2022-11-13T09:54:24.152Z,8.30
2022-11-13T09:57:11.563Z,8.40
2022-11-13T09:59:49.069Z,8.40
2022-11-13T10:02:38.257Z,8.50
2022-11-13T10:05:10.967Z,8.60
2022-11-13T10:07:55.006Z,8.60
2022-11-13T10:10:43.452Z,8.60
2022-11-13T10:13:21.367Z,8.60
2022-11-13T10:15:52.757Z,8.60
2022-11-13T10:18:34.723Z,8.70
2022-11-13T10:21:15.306Z,8.70
2022-11-13T10:23:47.028Z,8.80
2022-11-13T10:26:19.961Z,8.70
2022-11-13T10:28:51.705Z,8.80
2022-11-13T10:31:18.435Z,8.70
2022-11-13T10:33:44.991Z,8.60
2022-11-13T10:36:26.193Z,8.60
2022-11-13T10:39:06.206Z,8.60
2022-11-13T10:41:33.097Z,8.60
2022-11-13T10:44:21.629Z,8.70
2022-11-13T10:46:48.732Z,8.80
2022-11-13T10:49:25.915Z,8.80
2022-11-13T10:51:57.632Z,8.80
2022-11-13T10:54:27.970Z,8.80
2022-11-13T10:57:03.531Z,8.90
2022-11-13T10:59:42.079Z,8.90
2022-11-13T11:02:11.397Z,8.90
2022-11-13T11:04:37.927Z,8.80
2022-11-13T11:07:21.304Z,8.80
2022-11-13T11:09:50.547Z,8.80
2022-11-13T11:12:31.164Z,8.80
2022-11-13T11:15:04.963Z,8.90
2022-11-13T11:17:46.171Z,8.90
2022-11-13T11:20:53.572Z,9.00
2022-11-13T11:23:29.296Z,9.00
2022-11-13T11:26:03.846Z,9.00
2022-11-13T11:28:35.830Z,9.10
2022-11-13T11:31:15.483Z,9.10
2022-11-13T11:33:59.008Z,9.10
2022-11-13T11:36:33.253Z,9.10
2022-11-13T11:39:21.386Z,9.20
2022-11-13T11:41:55.293Z,9.20
2022-11-13T11:44:29.507Z,9.10
2022-11-13T11:46:56.067Z,9.10
2022-11-13T11:49:25.895Z,9.20
2022-11-13T11:52:12.800Z,9.20
2022-11-13T11:54:49.072Z,9.30
2022-11-13T11:57:46.568Z,9.30
2022-11-13T12:00:17.307Z,9.30
2022-11-13T12:03:16.167Z,9.30
2022-11-13T12:06:00.295Z,9.30
2022-11-13T12:08:41.248Z,9.30
2022-11-13T12:11:31.677Z,9.40
2022-11-13T12:14:20.243Z,9.40
2022-11-13T12:17:05.839Z,9.40
2022-11-13T12:19:57.403Z,9.40
2022-11-13T12:22:48.540Z,9.50
2022-11-13T12:25:31.872Z,9.50
2022-11-13T12:28:28.280Z,9.50
2022-11-13T12:31:16.333Z,9.50
2022-11-13T12:34:07.378Z,9.50
2022-11-13T12:36:34.631Z,9.50
2022-11-13T12:39:31.487Z,9.50
2022-11-13T12:42:20.900Z,9.60
2022-11-13T12:44:56.313Z,9.60
2022-11-13T12:47:23.366Z,9.60
2022-11-13T12:50:00.660Z,9.60
2022-11-13T12:52:27.336Z,9.60
2022-11-13T12:55:05.581Z,9.70
2022-11-13T12:57:32.440Z,9.70
2022-11-13T13:00:20.534Z,9.70
2022-11-13T13:02:55.171Z,9.70
2022-11-13T13:05:37.961Z,9.70
2022-11-13T13:08:28.113Z,9.70
2022-11-13T13:11:01.126Z,9.70
2022-11-13T13:13:39.903Z,9.70
2022-11-13T13:16:08.649Z,9.70
2022-11-13T13:18:37.622Z,9.80
2022-11-13T13:21:12.058Z,9.80
2022-11-13T13:23:47.419Z,9.80
2022-11-13T13:26:16.713Z,9.80
2022-11-13T13:28:51.103Z,9.80
2022-11-13T13:31:39.042Z,9.80
2022-11-13T13:34:23.696Z,9.80
2022-11-13T13:37:27.904Z,9.70
2022-11-13T13:40:20.212Z,9.80
2022-11-13T13:43:09.283Z,9.80
2022-11-13T13:46:02.146Z,9.80
2022-11-13T13:48:31.586Z,9.70
2022-11-13T13:51:01.095Z,9.70
2022-11-13T13:53:32.578Z,9.70
2022-11-13T13:56:01.264Z,9.60
2022-11-13T13:58:35.116Z,9.60
2022-11-13T14:01:18.409Z,9.70
2022-11-13T14:03:46.977Z,9.70
2022-11-13T14:06:23.075Z,9.70
2022-11-13T14:08:50.207Z,9.80
2022-11-13T14:11:19.907Z,9.80
2022-11-13T14:13:46.561Z,9.80
2022-11-13T14:16:13.964Z,9.80
2022-11-13T14:18:40.647Z,9.80
2022-11-13T14:21:17.618Z,9.80
2022-11-13T14:23:48.642Z,9.80
2022-11-13T14:26:15.643Z,9.80
2022-11-13T14:28:58.196Z,9.90
2022-11-13T14:31:30.690Z,9.80
2022-11-13T14:34:00.785Z,9.80
2022-11-13T14:36:31.464Z,9.80
2022-11-13T14:38:59.017Z,9.90
2022-11-13T14:41:35.125Z,9.90
2022-11-13T14:44:02.112Z,10.00
2022-11-13T14:46:34.759Z,10.00
2022-11-13T14:49:01.596Z,9.90
2022-11-13T14:51:30.484Z,9.90
2022-11-13T14:54:02.063Z,9.90
2022-11-13T14:56:37.287Z,9.90
2022-11-13T14:59:30.284Z,10.00
2022-11-13T15:01:57.868Z,9.90
2022-11-13T15:04:25.227Z,9.90
2022-11-13T15:06:55.631Z,9.80
2022-11-13T15:09:24.290Z,9.90
2022-11-13T15:11:51.018Z,9.90
2022-11-13T15:14:20.700Z,9.90
2022-11-13T15:16:49.314Z,9.90
2022-11-13T15:19:27.040Z,9.90
2022-11-13T15:22:25.427Z,9.90
2022-11-13T15:24:41.671Z,9.80
2022-11-13T15:27:15.053Z,9.80
2022-11-13T15:29:42.482Z,9.80
2022-11-13T15:32:13.909Z,9.80
2022-11-13T15:34:41.263Z,9.80
2022-11-13T15:37:15.788Z,9.80
2022-11-13T15:39:42.490Z,9.80
2022-11-13T15:42:16.073Z,9.80
2022-11-13T15:44:43.741Z,9.80
2022-11-13T15:47:30.089Z,9.80
2022-11-13T15:50:12.809Z,9.90
2022-11-13T15:52:42.592Z,9.90
2022-11-13T15:55:19.836Z,9.90
2022-11-13T15:57:46.571Z,9.80
2022-11-13T16:00:18.757Z,9.90
2022-11-13T16:02:49.988Z,9.90
2022-11-13T16:05:17.061Z,9.90
2022-11-13T16:07:43.807Z,9.80
2022-11-13T16:10:11.194Z,9.90
2022-11-13T16:12:38.276Z,9.90
2022-11-13T16:15:05.338Z,9.80
2022-11-13T16:17:39.239Z,9.80
2022-11-13T16:20:07.540Z,9.90
2022-11-13T16:22:34.126Z,9.90
2022-11-13T16:25:00.688Z,9.90
2022-11-13T16:27:29.743Z,9.80
2022-11-13T16:29:56.518Z,9.80
2022-11-13T16:32:23.786Z,9.80
2022-11-13T16:34:50.412Z,9.90
2022-11-13T16:37:19.400Z,9.90
2022-11-13T16:39:46.575Z,9.90
2022-11-13T16:42:14.763Z,10.00
2022-11-13T16:44:41.767Z,10.00
2022-11-13T16:47:33.700Z,10.00
2022-11-13T16:50:00.907Z,10.10
2022-11-13T16:52:27.862Z,10.00
2022-11-13T16:54:54.392Z,10.10
2022-11-13T16:57:20.927Z,10.10
2022-11-13T16:59:47.465Z,10.10
2022-11-13T17:02:16.412Z,10.10
2022-11-13T17:04:43.946Z,10.10
2022-11-13T17:07:15.036Z,10.10
2022-11-13T17:09:43.011Z,10.10
2022-11-13T17:12:10.995Z,10.10
2022-11-13T17:14:37.909Z,10.10
2022-11-13T17:17:06.155Z,10.20
2022-11-13T17:19:34.335Z,10.20
2022-11-13T17:22:01.495Z,10.20
2022-11-13T17:24:28.234Z,10.20
2022-11-13T17:26:54.831Z,10.20
2022-11-13T17:29:21.395Z,10.20
2022-11-13T17:31:47.915Z,10.20
2022-11-13T17:34:14.522Z,10.20
2022-11-13T17:36:41.295Z,10.30
2022-11-13T17:39:07.916Z,10.30
2022-11-13T17:41:34.916Z,10.30
2022-11-13T17:44:01.711Z,10.30
2022-11-13T17:46:28.318Z,10.30
2022-11-13T17:48:55.015Z,10.20
2022-11-13T17:51:21.797Z,10.30
2022-11-13T17:53:49.857Z,10.30
2022-11-13T17:56:17.577Z,10.30
2022-11-13T17:58:45.235Z,10.20
2022-11-13T18:01:14.614Z,10.30
2022-11-13T18:03:42.002Z,10.30
2022-11-13T18:06:13.403Z,10.40
2022-11-13T18:08:41.556Z,10.30
2022-11-13T18:11:17.296Z,10.40
2022-11-13T18:13:44.798Z,10.40
2022-11-13T18:16:16.455Z,10.40
2022-11-13T18:18:43.139Z,10.40
2022-11-13T18:21:22.833Z,10.40
2022-11-13T18:23:55.857Z,10.40
2022-11-13T18:26:22.788Z,10.40
2022-11-13T18:28:49.334Z,10.40
2022-11-13T18:31:18.467Z,10.40
2022-11-13T18:33:45.196Z,10.40
2022-11-13T18:36:12.015Z,10.40
2022-11-13T18:38:38.735Z,10.40
2022-11-13T18:41:23.959Z,10.30
2022-11-13T18:43:52.008Z,10.30
2022-11-13T18:46:20.961Z,10.30
2022-11-13T18:48:48.500Z,10.30
2022-11-13T18:51:20.159Z,10.30
2022-11-13T18:53:50.702Z,10.40
2022-11-13T18:56:23.425Z,10.40
2022-11-13T18:58:51.611Z,10.40
2022-11-13T19:01:23.188Z,10.40
2022-11-13T19:04:16.049Z,10.40
2022-11-13T19:06:39.519Z,10.40
2022-11-13T19:09:15.343Z,10.50
2022-11-13T19:11:43.233Z,10.50
2022-11-13T19:14:12.887Z,10.50
2022-11-13T19:16:39.860Z,10.50
2022-11-13T19:19:13.749Z,10.50
2022-11-13T19:21:40.465Z,10.50
2022-11-13T19:24:08.604Z,10.50
2022-11-13T19:26:35.362Z,10.50
2022-11-13T19:29:01.871Z,10.50
2022-11-13T19:31:28.647Z,10.50
2022-11-13T19:33:56.747Z,10.40
2022-11-13T19:36:24.884Z,10.40
2022-11-13T19:38:52.670Z,10.40
2022-11-13T19:41:19.760Z,10.50
2022-11-13T19:43:47.847Z,10.50
2022-11-13T19:46:15.738Z,10.50
2022-11-13T19:48:44.146Z,10.50
2022-11-13T19:51:22.471Z,10.50
2022-11-13T19:53:53.414Z,10.50
2022-11-13T19:56:21.479Z,10.50
2022-11-13T19:58:49.543Z,10.50
2022-11-13T20:01:19.846Z,10.50
2022-11-13T20:03:46.673Z,10.50
2022-11-13T20:06:16.411Z,10.50
2022-11-13T20:08:43.275Z,10.50
2022-11-13T20:11:11.886Z,10.50
2022-11-13T20:13:39.227Z,10.40
2022-11-13T20:16:07.259Z,10.30
2022-11-13T20:18:34.589Z,10.20
2022-11-13T20:21:01.496Z,10.20
2022-11-13T20:23:28.023Z,10.20
2022-11-13T20:26:00.189Z,10.30
2022-11-13T20:28:31.374Z,10.30
2022-11-13T20:31:10.492Z,10.30
2022-11-13T20:33:37.170Z,10.30
2022-11-13T20:36:04.464Z,10.30
2022-11-13T20:38:31.428Z,10.30
2022-11-13T20:40:58.075Z,10.30
2022-11-13T20:43:24.733Z,10.30
2022-11-13T20:45:51.295Z,10.40
2022-11-13T20:48:17.907Z,10.30
2022-11-13T20:50:44.796Z,10.40
2022-11-13T20:53:11.443Z,10.40
2022-11-13T20:55:38.695Z,10.40
2022-11-13T20:58:05.366Z,10.50
2022-11-13T21:00:32.098Z,10.50
2022-11-13T21:02:58.708Z,10.50
2022-11-13T21:05:25.271Z,10.50
2022-11-13T21:07:51.870Z,10.50
2022-11-13T21:10:18.573Z,10.50
2022-11-13T21:12:45.287Z,10.50
2022-11-13T21:15:11.795Z,10.50
2022-11-13T21:17:39.155Z,10.50
2022-11-13T21:20:06.242Z,10.50
2022-11-13T21:22:32.949Z,10.50
2022-11-13T21:24:59.466Z,10.50
2022-11-13T21:27:25.988Z,10.40
2022-11-13T21:29:52.968Z,10.50
2022-11-13T21:32:20.304Z,10.50
2022-11-13T21:34:46.817Z,10.50
2022-11-13T21:37:14.360Z,10.50
2022-11-13T21:39:40.968Z,10.50
2022-11-13T21:42:07.567Z,10.50
2022-11-13T21:44:34.182Z,10.40
2022-11-13T21:47:00.792Z,10.50
2022-11-13T21:49:27.397Z,10.50
2022-11-13T21:51:53.949Z,10.40
2022-11-13T21:54:20.523Z,10.40
2022-11-13T21:56:47.100Z,10.40
2022-11-13T21:59:13.726Z,10.40
2022-11-13T22:01:40.319Z,10.50
2022-11-13T22:04:07.393Z,10.40
2022-11-13T22:06:39.756Z,10.40
2022-11-13T22:09:23.355Z,10.40
2022-11-13T22:11:50.098Z,10.40
2022-11-13T22:14:16.987Z,10.40
2022-11-13T22:16:46.237Z,10.40
2022-11-13T22:19:20.340Z,10.40
2022-11-13T22:21:50.632Z,10.40
2022-11-13T22:24:17.241Z,10.40
2022-11-13T22:26:48.343Z,10.40
2022-11-13T22:29:15.120Z,10.50
2022-11-13T22:31:42.853Z,10.40
2022-11-13T22:34:09.367Z,10.40
2022-11-13T22:36:37.000Z,10.40
2022-11-13T22:39:04.655Z,10.50
2022-11-13T22:41:34.131Z,10.40
2022-11-13T22:44:03.486Z,10.40
2022-11-13T22:46:31.675Z,10.30
2022-11-13T22:49:01.595Z,10.40
2022-11-13T22:51:32.520Z,10.40
2022-11-13T22:54:01.525Z,10.30
2022-11-13T22:56:30.621Z,10.30
2022-11-13T22:59:00.720Z,10.20
2022-11-13T23:01:29.872Z,10.20
2022-11-13T23:03:58.019Z,10.20
2022-11-13T23:06:27.085Z,10.20
2022-11-13T23:08:54.261Z,10.30
2022-11-13T23:11:26.513Z,10.20
2022-11-13T23:13:56.428Z,10.30
2022-11-13T23:16:24.373Z,10.20
2022-11-13T23:18:53.135Z,10.20
2022-11-13T23:21:20.055Z,10.10
2022-11-13T23:23:47.273Z,10.10
2022-11-13T23:26:16.041Z,10.10
2022-11-13T23:28:43.039Z,10.10
2022-11-13T23:31:09.951Z,10.10
2022-11-13T23:33:37.978Z,10.10
2022-11-13T23:36:06.635Z,10.10
2022-11-13T23:38:33.475Z,10.00
2022-11-13T23:41:01.438Z,9.90
2022-11-13T23:43:53.909Z,9.90
2022-11-13T23:46:15.728Z,9.90
2022-11-13T23:48:42.483Z,9.90
2022-11-13T23:51:09.032Z,9.90
2022-11-13T23:53:35.572Z,9.90
2022-11-13T23:56:02.090Z,10.00
2022-11-13T23:58:31.851Z,9.90
